createdAt,value
2019-03-04T00:00:45.198Z,4.47
2019-03-04T00:03:19.105Z,3.40
2019-03-04T00:05:52.710Z,2.47
2019-03-04T00:08:26.885Z,4.20
2019-03-04T00:10:59.394Z,3.10
2019-03-04T01:13:33.345Z,2.40
2019-03-04T01:57:37.530Z,2.40
2019-03-04T02:00:32.597Z,2.40
2019-03-04T02:03:34.686Z,1.80
2019-03-04T02:06:26.582Z,2.57
2019-03-04T02:15:21.516Z,1.90
2019-03-04T02:18:06.826Z,1.83
2019-03-04T02:20:59.703Z,2.40
2019-03-04T02:26:45.637Z,1.83
2019-03-04T02:29:41.181Z,2.27
2019-03-04T02:32:13.627Z,2.33
2019-03-04T02:34:46.033Z,2.30
2019-03-04T02:37:18.405Z,2.07
2019-03-04T02:39:50.778Z,2.50
2019-03-04T02:42:23.247Z,3.30
2019-03-04T02:44:55.635Z,2.53
2019-03-04T02:47:27.988Z,1.73
2019-03-04T02:50:00.523Z,2.80
2019-03-04T02:52:32.856Z,2.33
2019-03-04T02:55:10.787Z,2.70
2019-03-04T03:00:31.258Z,2.67
2019-03-04T03:03:07.344Z,2.63
2019-03-04T03:05:41.132Z,2.00
2019-03-04T03:08:28.188Z,2.60
2019-03-04T03:11:01.822Z,2.40
2019-03-04T03:16:28.865Z,3.40
2019-03-04T03:19:06.468Z,2.30
2019-03-04T03:21:38.867Z,1.93
2019-03-04T03:24:10.834Z,2.40
2019-03-04T03:26:43.206Z,2.47
2019-03-04T03:29:15.679Z,2.57
2019-03-04T03:31:48.152Z,2.40
2019-03-04T03:34:20.132Z,1.83
2019-03-04T03:36:52.489Z,1.90
2019-03-04T03:39:24.861Z,2.90
2019-03-04T03:41:57.122Z,2.13
2019-03-04T03:44:29.497Z,2.20
2019-03-04T03:47:01.413Z,2.73
2019-03-04T03:49:33.738Z,2.27
2019-03-04T03:52:06.102Z,2.33
2019-03-04T03:54:38.479Z,2.47
2019-03-04T03:57:10.854Z,1.97
2019-03-04T03:59:43.163Z,2.60
2019-03-04T04:02:17.777Z,2.40
2019-03-04T04:04:51.674Z,2.67
2019-03-04T04:07:31.687Z,2.60
2019-03-04T04:10:11.531Z,2.30
2019-03-04T04:13:02.940Z,2.20
2019-03-04T04:15:54.073Z,2.80
2019-03-04T04:18:36.322Z,2.43
2019-03-04T04:21:23.670Z,3.23
2019-03-04T04:24:05.041Z,2.93
2019-03-04T04:26:52.653Z,3.13
2019-03-04T04:29:26.622Z,2.23
2019-03-04T04:32:06.034Z,2.67
2019-03-04T04:34:57.915Z,2.53
2019-03-04T04:37:37.878Z,2.30
2019-03-04T04:40:14.639Z,3.07
2019-03-04T04:42:55.473Z,2.60
2019-03-04T04:45:33.230Z,3.43
2019-03-04T04:48:27.183Z,2.63
2019-03-04T04:51:19.422Z,2.23
2019-03-04T04:54:09.267Z,2.70
2019-03-04T04:57:00.565Z,3.00
2019-03-04T04:59:44.402Z,3.03
2019-03-04T05:02:27.309Z,3.00
2019-03-04T05:05:04.160Z,3.30
2019-03-04T05:07:55.390Z,2.60
2019-03-04T05:10:36.413Z,2.63
2019-03-04T05:13:28.691Z,1.53
2019-03-04T05:16:08.130Z,2.40
2019-03-04T05:18:43.489Z,2.27
2019-03-04T05:21:24.723Z,1.97
2019-03-04T05:23:57.092Z,2.23
2019-03-04T05:26:29.566Z,2.10
2019-03-04T05:29:02.148Z,1.97
2019-03-04T05:31:34.110Z,2.40
2019-03-04T05:34:06.370Z,2.00
2019-03-04T05:36:38.854Z,2.00
2019-03-04T05:39:11.225Z,2.50
2019-03-04T05:41:43.596Z,2.53
2019-03-04T05:46:46.597Z,2.10
2019-03-04T05:49:18.969Z,2.30
2019-03-04T05:55:43.827Z,2.20
2019-03-04T05:58:35.697Z,2.20
2019-03-04T06:01:30.933Z,2.60
2019-03-04T06:04:07.634Z,1.83
2019-03-04T06:10:00.888Z,2.87
2019-03-04T06:12:35.318Z,2.40
2019-03-04T06:15:17.308Z,2.30
2019-03-04T06:17:49.570Z,2.10
2019-03-04T06:20:22.565Z,2.00
2019-03-04T06:22:55.144Z,2.20
2019-03-04T06:25:31.198Z,2.27
2019-03-04T06:28:03.674Z,2.17
2019-03-04T06:30:36.857Z,2.17
2019-03-04T06:33:09.336Z,2.40
2019-03-04T06:35:41.701Z,2.73
2019-03-04T06:38:13.621Z,2.77
2019-03-04T06:40:45.933Z,2.30
2019-03-04T06:43:18.307Z,2.57
2019-03-04T06:45:50.617Z,2.53
2019-03-04T06:48:22.952Z,3.27
2019-03-04T06:51:00.549Z,2.80
2019-03-04T06:53:57.908Z,3.37
2019-03-04T06:56:47.079Z,4.27
2019-03-04T06:59:46.586Z,2.60
2019-03-04T07:02:23.873Z,3.57
2019-03-04T07:05:20.306Z,3.13
2019-03-04T07:07:56.202Z,3.60
2019-03-04T07:10:31.122Z,2.93
2019-03-04T07:13:11.512Z,3.27
2019-03-04T07:16:10.560Z,3.20
2019-03-04T07:19:13.834Z,3.57
2019-03-04T07:35:43.271Z,3.00
2019-03-04T07:38:29.679Z,2.90
2019-03-04T07:41:48.181Z,3.33
2019-03-04T07:59:24.655Z,2.20
2019-03-04T08:02:05.976Z,3.27
2019-03-04T08:04:42.320Z,3.10
2019-03-04T08:07:47.958Z,3.90
2019-03-04T08:11:01.189Z,2.90
2019-03-04T08:13:42.583Z,3.70
2019-03-04T08:16:32.452Z,3.30
2019-03-04T08:19:07.900Z,3.37
2019-03-04T08:21:57.783Z,3.60
2019-03-04T08:24:47.770Z,3.90
2019-03-04T08:27:20.237Z,3.43
2019-03-04T08:30:16.165Z,3.73
2019-03-04T08:32:51.004Z,3.60
2019-03-04T08:41:18.375Z,3.80
2019-03-04T08:44:17.327Z,3.70
2019-03-04T08:57:10.043Z,2.70
2019-03-04T09:10:21.853Z,2.77
2019-03-04T09:50:24.519Z,2.37
2019-03-04T09:54:06.395Z,3.30
2019-03-04T09:56:43.401Z,2.77
2019-03-04T09:59:42.483Z,2.77
2019-03-04T10:02:31.635Z,2.67
2019-03-04T10:09:34.747Z,2.23
2019-03-04T10:12:51.238Z,2.10
2019-03-04T10:15:59.986Z,2.53
2019-03-04T10:18:58.788Z,2.30
2019-03-04T10:31:26.819Z,2.43
2019-03-04T10:33:58.878Z,2.83
2019-03-04T10:36:57.268Z,3.00
2019-03-04T10:39:46.272Z,2.40
2019-03-04T10:42:35.614Z,2.30
2019-03-04T10:48:53.786Z,2.50
2019-03-04T10:54:18.666Z,2.03
2019-03-04T10:56:58.018Z,2.30
2019-03-04T10:59:31.358Z,2.23
2019-03-04T11:02:06.661Z,2.10
2019-03-04T11:04:40.173Z,2.13
2019-03-04T11:07:11.141Z,1.90
2019-03-04T11:09:45.492Z,2.10
2019-03-04T11:12:17.867Z,2.20
2019-03-04T11:14:50.234Z,1.97
2019-03-04T11:19:56.516Z,1.63
2019-03-04T11:22:30.012Z,1.83
2019-03-04T11:25:02.383Z,2.13
2019-03-04T11:27:34.342Z,1.80
2019-03-04T11:30:11.425Z,2.13
2019-03-04T11:32:45.334Z,2.10
2019-03-04T11:35:17.716Z,1.90
2019-03-04T11:37:50.084Z,2.57
2019-03-04T11:40:37.046Z,1.70
2019-03-04T11:43:09.366Z,1.83
2019-03-04T11:45:41.735Z,2.37
2019-03-04T11:48:15.030Z,2.97
2019-03-04T11:50:47.399Z,2.90
2019-03-04T11:53:19.774Z,2.33
2019-03-04T11:55:53.528Z,2.33
2019-03-04T11:58:26.257Z,2.60
2019-03-04T12:01:28.438Z,2.30
2019-03-04T12:07:36.694Z,1.90
2019-03-04T12:25:28.048Z,2.13
2019-03-04T12:32:14.078Z,2.13
2019-03-04T12:52:42.244Z,1.77
2019-03-04T12:55:17.987Z,2.40
2019-03-04T12:57:52.150Z,1.80
2019-03-04T13:02:57.723Z,1.67
2019-03-04T13:05:30.090Z,1.97
2019-03-04T13:08:04.403Z,1.80
2019-03-04T13:10:40.281Z,1.87
2019-03-04T13:13:15.290Z,2.00
2019-03-04T13:15:52.269Z,2.03
2019-03-04T13:18:24.652Z,2.57
2019-03-04T13:20:56.718Z,3.03
2019-03-04T13:23:29.079Z,2.67
2019-03-04T13:26:01.353Z,2.50
2019-03-04T13:28:33.722Z,2.30
2019-03-04T13:31:10.537Z,2.40
2019-03-04T13:34:02.575Z,2.37
2019-03-04T13:36:38.904Z,2.63
2019-03-04T13:39:12.614Z,2.50
2019-03-04T13:41:46.724Z,2.20
2019-03-04T13:44:20.219Z,2.20
2019-03-04T13:46:52.711Z,2.40
2019-03-04T13:49:25.059Z,2.67
2019-03-04T13:51:57.530Z,4.00
2019-03-04T13:54:30.114Z,2.73
2019-03-04T13:57:02.480Z,4.00
2019-03-04T13:59:36.062Z,2.70
2019-03-04T14:02:12.397Z,2.17
2019-03-04T14:04:44.307Z,1.87
2019-03-04T14:07:20.048Z,1.80
2019-03-04T14:09:54.272Z,1.70
2019-03-04T14:12:26.649Z,2.00
2019-03-04T14:14:59.017Z,1.60
2019-03-04T14:17:31.382Z,2.07
2019-03-04T14:20:04.266Z,1.87
2019-03-04T14:22:40.351Z,2.10
2019-03-04T14:25:13.926Z,1.60
2019-03-04T14:27:46.310Z,2.20
2019-03-04T14:30:21.441Z,1.50
2019-03-04T14:32:54.735Z,1.50
2019-03-04T14:35:27.103Z,1.30
2019-03-04T14:37:59.478Z,1.53
2019-03-04T14:40:31.849Z,1.70
2019-03-04T14:43:04.222Z,1.50
2019-03-04T14:45:36.608Z,1.83
2019-03-04T14:50:38.777Z,1.60
2019-03-04T14:53:11.152Z,1.60
2019-03-04T14:55:44.545Z,1.60
2019-03-04T14:58:16.922Z,2.50
2019-03-04T15:00:50.827Z,1.97
2019-03-04T15:03:24.075Z,1.73
2019-03-04T15:06:06.321Z,2.00
2019-03-04T15:08:30.506Z,1.93
2019-03-04T15:11:02.868Z,1.47
2019-03-04T15:13:35.144Z,3.00
2019-03-04T15:16:07.716Z,2.40
2019-03-04T15:18:40.097Z,2.00
2019-03-04T15:21:12.466Z,1.83
2019-03-04T15:23:44.388Z,1.70
2019-03-04T15:26:18.226Z,2.53
2019-03-04T15:28:50.502Z,2.87
2019-03-04T15:31:22.874Z,2.10
2019-03-04T15:33:55.140Z,2.20
2019-03-04T15:36:27.511Z,2.00
2019-03-04T15:38:59.778Z,2.87
2019-03-04T15:41:33.693Z,2.23
2019-03-04T15:44:06.068Z,2.67
2019-03-04T15:46:38.441Z,1.90
2019-03-04T15:49:10.810Z,1.30
2019-03-04T15:51:43.121Z,2.43
2019-03-04T15:54:15.452Z,2.27
2019-03-04T15:56:47.823Z,4.70
2019-03-04T15:59:20.197Z,1.60
2019-03-04T16:01:52.568Z,1.63
2019-03-04T16:04:25.478Z,1.17
2019-03-04T16:06:57.824Z,1.60
2019-03-04T16:09:30.299Z,1.70
2019-03-04T16:12:02.673Z,1.13
2019-03-04T16:14:35.036Z,1.87
2019-03-04T16:17:07.643Z,1.60
2019-03-04T16:19:39.984Z,1.10
2019-03-04T16:22:12.362Z,0.80
2019-03-04T16:24:44.732Z,2.33
2019-03-04T16:27:17.104Z,1.73
2019-03-04T16:29:52.425Z,2.63
2019-03-04T16:32:27.066Z,1.70
2019-03-04T16:34:59.449Z,1.53
2019-03-04T16:37:31.918Z,1.60
2019-03-04T16:40:05.214Z,1.80
2019-03-04T16:42:37.584Z,1.30
2019-03-04T16:45:22.909Z,1.13
2019-03-04T16:47:55.225Z,2.10
2019-03-04T16:50:34.458Z,1.30
2019-03-04T16:53:11.551Z,1.40
2019-03-04T16:55:43.917Z,1.57
2019-03-04T16:58:16.660Z,1.37
2019-03-04T17:00:49.079Z,1.47
2019-03-04T17:03:21.458Z,1.70
2019-03-04T17:05:53.718Z,1.80
2019-03-04T17:08:26.086Z,2.60
2019-03-04T17:10:58.508Z,2.43
2019-03-04T17:13:31.036Z,2.60
2019-03-04T17:16:03.416Z,1.60
2019-03-04T17:18:36.085Z,1.50
2019-03-04T17:21:08.591Z,0.93
2019-03-04T17:23:41.139Z,1.50
2019-03-04T17:26:13.576Z,1.37
2019-03-04T17:28:45.562Z,1.13
2019-03-04T17:31:17.838Z,1.20
2019-03-04T17:33:50.215Z,0.83
2019-03-04T17:36:22.586Z,1.43
2019-03-04T17:38:54.957Z,0.90
2019-03-04T17:41:27.842Z,0.87
2019-03-04T17:44:00.356Z,1.90
2019-03-04T17:46:32.843Z,1.20
2019-03-04T17:49:05.326Z,1.27
2019-03-04T17:51:37.662Z,1.27
2019-03-04T17:54:10.012Z,2.00
2019-03-04T17:56:42.293Z,1.20
2019-03-04T17:59:15.546Z,1.63
2019-03-04T18:01:47.840Z,1.20
2019-03-04T18:04:20.213Z,1.33
2019-03-04T18:06:52.485Z,0.93
2019-03-04T18:09:24.850Z,1.03
2019-03-04T18:11:57.132Z,1.20
2019-03-04T18:14:30.730Z,1.17
2019-03-04T18:17:07.196Z,1.20
2019-03-04T18:19:39.579Z,0.80
2019-03-04T18:22:11.965Z,0.93
2019-03-04T18:24:44.339Z,1.53
2019-03-04T18:27:16.804Z,1.03
2019-03-04T18:30:02.880Z,1.10
2019-03-04T18:32:59.000Z,1.10
2019-03-04T18:35:50.886Z,1.03
2019-03-04T18:38:40.022Z,0.90
2019-03-04T18:41:35.017Z,1.10
2019-03-04T18:44:17.827Z,1.10
2019-03-04T18:47:03.931Z,1.30
2019-03-04T18:49:36.286Z,1.50
2019-03-04T18:52:08.768Z,1.70
2019-03-04T18:54:41.345Z,2.00
2019-03-04T18:57:14.444Z,1.10
2019-03-04T18:59:46.874Z,1.77
2019-03-04T19:02:19.383Z,1.00
2019-03-04T19:04:51.776Z,0.50
2019-03-04T19:07:24.135Z,0.60
2019-03-04T19:09:56.633Z,0.80
2019-03-04T19:12:28.871Z,0.83
2019-03-04T19:15:01.258Z,1.27
2019-03-04T19:17:34.912Z,1.30
2019-03-04T19:20:14.583Z,0.93
2019-03-04T19:22:47.484Z,0.87
2019-03-04T19:25:19.405Z,1.77
2019-03-04T19:27:51.840Z,2.47
2019-03-04T19:30:24.174Z,2.10
2019-03-04T19:32:56.674Z,1.60
2019-03-04T19:35:29.028Z,1.60
2019-03-04T19:38:01.398Z,1.50
2019-03-04T19:40:33.779Z,0.90
2019-03-04T19:43:06.150Z,0.60
2019-03-04T19:45:38.417Z,0.60
2019-03-04T19:48:10.799Z,0.90
2019-03-04T19:50:43.149Z,0.53
2019-03-04T19:53:15.520Z,1.07
2019-03-04T19:55:47.900Z,0.90
2019-03-04T19:58:19.902Z,0.87
2019-03-04T20:00:51.840Z,1.93
2019-03-04T20:03:23.932Z,1.77
2019-03-04T20:05:56.263Z,1.60
2019-03-04T20:08:28.691Z,1.23
2019-03-04T20:11:01.000Z,1.07
2019-03-04T20:13:34.403Z,1.50
2019-03-04T20:16:07.186Z,1.30
2019-03-04T20:18:39.247Z,1.20
2019-03-04T20:21:11.513Z,1.67
2019-03-04T20:23:43.887Z,1.27
2019-03-04T20:26:17.385Z,1.77
2019-03-04T20:28:49.750Z,1.73
2019-03-04T20:31:22.234Z,1.93
2019-03-04T20:33:54.630Z,1.87
2019-03-04T20:36:26.982Z,2.30
2019-03-04T20:38:59.545Z,1.80
2019-03-04T20:41:32.039Z,2.20
2019-03-04T20:44:04.396Z,2.50
2019-03-04T20:46:37.810Z,2.00
2019-03-04T20:49:10.159Z,2.13
2019-03-04T20:51:42.537Z,3.00
2019-03-04T20:54:15.137Z,1.97
2019-03-04T20:56:47.592Z,2.90
2019-03-04T20:59:19.966Z,2.07
2019-03-04T21:01:52.677Z,1.90
2019-03-04T21:04:25.147Z,1.30
2019-03-04T21:06:58.815Z,2.00
2019-03-04T21:09:32.249Z,2.60
2019-03-04T21:12:04.788Z,2.17
2019-03-04T21:14:36.782Z,2.50
2019-03-04T21:17:09.130Z,1.90
2019-03-04T21:19:41.491Z,2.77
2019-03-04T21:22:15.314Z,1.60
2019-03-04T21:24:48.908Z,2.53
2019-03-04T21:27:23.854Z,2.47
2019-03-04T21:30:09.735Z,2.70
2019-03-04T21:32:44.398Z,2.40
2019-03-04T21:35:34.810Z,1.50
2019-03-04T21:38:07.440Z,2.20
2019-03-04T21:41:05.817Z,2.40
2019-03-04T21:43:42.936Z,1.30
2019-03-04T21:46:39.627Z,1.70
2019-03-04T21:49:13.246Z,1.70
2019-03-04T21:52:20.766Z,2.30
2019-03-04T21:54:53.200Z,1.70
2019-03-04T21:57:35.470Z,1.57
2019-03-04T22:00:15.266Z,2.03
2019-03-04T22:02:53.780Z,2.30
2019-03-04T22:05:26.204Z,2.53
2019-03-04T22:07:58.876Z,1.70
2019-03-04T22:10:31.208Z,1.90
2019-03-04T22:13:10.656Z,1.40
2019-03-04T22:15:43.094Z,2.50
2019-03-04T22:18:15.481Z,1.43
2019-03-04T22:20:48.247Z,1.33
2019-03-04T22:23:20.222Z,2.57
2019-03-04T22:26:01.482Z,1.50
2019-03-04T22:28:26.514Z,1.87
2019-03-04T22:30:58.957Z,2.20
2019-03-04T22:33:32.831Z,1.53
2019-03-04T22:36:05.153Z,1.70
2019-03-04T22:38:37.520Z,1.60
2019-03-04T22:41:09.874Z,2.50
2019-03-04T22:43:41.834Z,1.50
2019-03-04T22:46:14.212Z,2.20
2019-03-04T22:48:48.212Z,2.10
2019-03-04T22:51:20.117Z,2.03
2019-03-04T22:53:52.599Z,2.77
2019-03-04T22:56:24.960Z,2.33
2019-03-04T22:58:57.393Z,2.23
2019-03-04T23:01:33.507Z,2.20
2019-03-04T23:04:18.699Z,2.10
2019-03-04T23:06:58.986Z,2.97
2019-03-04T23:09:44.970Z,2.57
2019-03-04T23:12:24.924Z,2.50
2019-03-04T23:14:58.986Z,1.97
2019-03-04T23:17:31.314Z,2.53
2019-03-04T23:20:03.676Z,3.10
2019-03-04T23:22:35.949Z,3.10
2019-03-04T23:25:13.447Z,3.17
2019-03-04T23:27:45.914Z,3.23
2019-03-04T23:30:18.282Z,2.80
2019-03-04T23:32:52.188Z,2.30
2019-03-04T23:35:24.573Z,1.63
2019-03-04T23:37:57.042Z,2.43
2019-03-04T23:40:29.421Z,3.17
2019-03-04T23:43:01.889Z,1.43
2019-03-04T23:45:36.004Z,3.10
2019-03-04T23:48:08.281Z,3.53
2019-03-04T23:50:40.744Z,2.23
2019-03-04T23:53:12.654Z,3.47
2019-03-04T23:55:44.630Z,2.57
2019-03-04T23:58:16.938Z,4.80
